sensor_id;sensor_type;location;lat;lon;timestamp;P1;P2;P0
46681;PMS5003;34101;53.430;-2.224;2023-10-19T00:01:01;2;2;
46681;PMS5003;34101;53.430;-2.224;2023-10-19T00:03:30;1;1;
46681;PMS5003;34101;53.430;-2.224;2023-10-19T00:05:58;0;0;
46681;PMS5003;34101;53.430;-2.224;2023-10-19T00:08:26;0;0;
46681;PMS5003;34101;53.430;-2.224;2023-10-19T00:10:54;1;1;
46681;PMS5003;34101;53.430;-2.224;2023-10-19T00:13:21;2;2;
46681;PMS5003;34101;53.430;-2.224;2023-10-19T00:15:49;0;0;
46681;PMS5003;34101;53.430;-2.224;2023-10-19T00:18:17;1;1;
46681;PMS5003;34101;53.430;-2.224;2023-10-19T00:20:45;1;1;
46681;PMS5003;34101;53.430;-2.224;2023-10-19T00:23:14;0;0;
46681;PMS5003;34101;53.430;-2.224;2023-10-19T00:25:42;2;2;
46681;PMS5003;34101;53.430;-2.224;2023-10-19T00:28:10;1;1;
46681;PMS5003;34101;53.430;-2.224;2023-10-19T00:30:37;2;2;
46681;PMS5003;34101;53.430;-2.224;2023-10-19T00:33:05;0;0;
46681;PMS5003;34101;53.430;-2.224;2023-10-19T00:35:33;1;1;
46681;PMS5003;34101;53.430;-2.224;2023-10-19T00:38:00;1;1;
46681;PMS5003;34101;53.430;-2.224;2023-10-19T00:40:28;2;2;
46681;PMS5003;34101;53.430;-2.224;2023-10-19T00:42:56;1;1;
46681;PMS5003;34101;53.430;-2.224;2023-10-19T00:45:23;1;1;
46681;PMS5003;34101;53.430;-2.224;2023-10-19T00:47:50;1;1;
46681;PMS5003;34101;53.430;-2.224;2023-10-19T00:50:18;1;1;
46681;PMS5003;34101;53.430;-2.224;2023-10-19T00:52:45;1;1;
46681;PMS5003;34101;53.430;-2.224;2023-10-19T00:55:13;1;1;
46681;PMS5003;34101;53.430;-2.224;2023-10-19T00:57:42;0;0;
46681;PMS5003;34101;53.430;-2.224;2023-10-19T01:00:10;1;1;
46681;PMS5003;34101;53.430;-2.224;2023-10-19T01:02:39;1;1;
46681;PMS5003;34101;53.430;-2.224;2023-10-19T01:05:07;1;1;
46681;PMS5003;34101;53.430;-2.224;2023-10-19T01:07:34;1;1;
46681;PMS5003;34101;53.430;-2.224;2023-10-19T01:10:02;0;0;
46681;PMS5003;34101;53.430;-2.224;2023-10-19T01:12:31;0;0;
46681;PMS5003;34101;53.430;-2.224;2023-10-19T01:15:01;0;0;
46681;PMS5003;34101;53.430;-2.224;2023-10-19T01:17:30;1;1;
46681;PMS5003;34101;53.430;-2.224;2023-10-19T01:19:58;0;0;
46681;PMS5003;34101;53.430;-2.224;2023-10-19T01:22:27;0;0;
46681;PMS5003;34101;53.430;-2.224;2023-10-19T01:24:55;0;0;
46681;PMS5003;34101;53.430;-2.224;2023-10-19T01:27:22;0;0;
46681;PMS5003;34101;53.430;-2.224;2023-10-19T01:29:49;0;0;
46681;PMS5003;34101;53.430;-2.224;2023-10-19T01:32:17;0;0;
46681;PMS5003;34101;53.430;-2.224;2023-10-19T01:34:44;0;0;
46681;PMS5003;34101;53.430;-2.224;2023-10-19T01:37:12;0;0;
46681;PMS5003;34101;53.430;-2.224;2023-10-19T01:39:39;0;0;
46681;PMS5003;34101;53.430;-2.224;2023-10-19T01:42:07;0;0;
46681;PMS5003;34101;53.430;-2.224;2023-10-19T01:44:34;0;0;
46681;PMS5003;34101;53.430;-2.224;2023-10-19T01:47:02;0;0;
46681;PMS5003;34101;53.430;-2.224;2023-10-19T01:49:30;0;0;
46681;PMS5003;34101;53.430;-2.224;2023-10-19T01:51:58;0;0;
46681;PMS5003;34101;53.430;-2.224;2023-10-19T01:54:26;0;0;
46681;PMS5003;34101;53.430;-2.224;2023-10-19T01:56:54;0;0;
46681;PMS5003;34101;53.430;-2.224;2023-10-19T01:59:22;0;0;
46681;PMS5003;34101;53.430;-2.224;2023-10-19T02:01:50;0;0;
46681;PMS5003;34101;53.430;-2.224;2023-10-19T02:04:18;0;0;
46681;PMS5003;34101;53.430;-2.224;2023-10-19T02:06:45;0;0;
46681;PMS5003;34101;53.430;-2.224;2023-10-19T02:09:13;1;0;
46681;PMS5003;34101;53.430;-2.224;2023-10-19T02:11:41;0;0;
46681;PMS5003;34101;53.430;-2.224;2023-10-19T02:14:08;0;0;
46681;PMS5003;34101;53.430;-2.224;2023-10-19T02:16:35;1;0;
46681;PMS5003;34101;53.430;-2.224;2023-10-19T02:19:03;0;0;
46681;PMS5003;34101;53.430;-2.224;2023-10-19T02:21:31;0;0;
46681;PMS5003;34101;53.430;-2.224;2023-10-19T02:23:59;0;0;
46681;PMS5003;34101;53.430;-2.224;2023-10-19T02:26:26;0;0;
46681;PMS5003;34101;53.430;-2.224;2023-10-19T02:28:54;0;0;
46681;PMS5003;34101;53.430;-2.224;2023-10-19T02:31:22;0;0;
46681;PMS5003;34101;53.430;-2.224;2023-10-19T02:33:49;0;0;
46681;PMS5003;34101;53.430;-2.224;2023-10-19T02:36:18;0;0;
46681;PMS5003;34101;53.430;-2.224;2023-10-19T02:38:46;0;0;
46681;PMS5003;34101;53.430;-2.224;2023-10-19T02:41:13;0;0;
46681;PMS5003;34101;53.430;-2.224;2023-10-19T02:43:42;0;0;
46681;PMS5003;34101;53.430;-2.224;2023-10-19T02:46:09;1;1;
46681;PMS5003;34101;53.430;-2.224;2023-10-19T02:48:36;1;1;
46681;PMS5003;34101;53.430;-2.224;2023-10-19T02:51:05;1;1;
46681;PMS5003;34101;53.430;-2.224;2023-10-19T02:53:32;0;0;
46681;PMS5003;34101;53.430;-2.224;2023-10-19T02:55:59;1;1;
46681;PMS5003;34101;53.430;-2.224;2023-10-19T02:58:37;1;1;
46681;PMS5003;34101;53.430;-2.224;2023-10-19T03:01:12;0;0;
46681;PMS5003;34101;53.430;-2.224;2023-10-19T03:03:40;1;1;
46681;PMS5003;34101;53.430;-2.224;2023-10-19T03:06:08;0;0;
46681;PMS5003;34101;53.430;-2.224;2023-10-19T03:08:35;0;0;
46681;PMS5003;34101;53.430;-2.224;2023-10-19T03:11:03;1;1;
46681;PMS5003;34101;53.430;-2.224;2023-10-19T03:13:30;0;0;
46681;PMS5003;34101;53.430;-2.224;2023-10-19T03:15:58;0;0;
46681;PMS5003;34101;53.430;-2.224;2023-10-19T03:18:25;1;0;
46681;PMS5003;34101;53.430;-2.224;2023-10-19T03:20:53;0;0;
46681;PMS5003;34101;53.430;-2.224;2023-10-19T03:23:21;0;0;
46681;PMS5003;34101;53.430;-2.224;2023-10-19T03:25:53;2;0;
46681;PMS5003;34101;53.430;-2.224;2023-10-19T03:28:22;2;1;
46681;PMS5003;34101;53.430;-2.224;2023-10-19T03:30:50;1;1;
46681;PMS5003;34101;53.430;-2.224;2023-10-19T03:33:17;2;1;
46681;PMS5003;34101;53.430;-2.224;2023-10-19T03:35:45;1;1;
46681;PMS5003;34101;53.430;-2.224;2023-10-19T03:38:12;2;2;
46681;PMS5003;34101;53.430;-2.224;2023-10-19T03:40:40;2;2;
46681;PMS5003;34101;53.430;-2.224;2023-10-19T03:43:08;4;4;
46681;PMS5003;34101;53.430;-2.224;2023-10-19T03:45:35;5;5;
46681;PMS5003;34101;53.430;-2.224;2023-10-19T03:48:03;4;4;
46681;PMS5003;34101;53.430;-2.224;2023-10-19T03:50:32;4;4;
46681;PMS5003;34101;53.430;-2.224;2023-10-19T03:52:59;6;5;
46681;PMS5003;34101;53.430;-2.224;2023-10-19T03:55:27;6;6;
46681;PMS5003;34101;53.430;-2.224;2023-10-19T03:57:55;6;6;
46681;PMS5003;34101;53.430;-2.224;2023-10-19T04:00:25;8;6;
46681;PMS5003;34101;53.430;-2.224;2023-10-19T04:02:53;6;6;
46681;PMS5003;34101;53.430;-2.224;2023-10-19T04:05:21;8;8;
46681;PMS5003;34101;53.430;-2.224;2023-10-19T04:07:49;10;10;
46681;PMS5003;34101;53.430;-2.224;2023-10-19T04:10:18;6;6;
46681;PMS5003;34101;53.430;-2.224;2023-10-19T04:12:45;7;7;
46681;PMS5003;34101;53.430;-2.224;2023-10-19T04:15:12;7;7;
46681;PMS5003;34101;53.430;-2.224;2023-10-19T04:17:39;7;7;
46681;PMS5003;34101;53.430;-2.224;2023-10-19T04:20:07;10;10;
46681;PMS5003;34101;53.430;-2.224;2023-10-19T04:22:36;9;9;
46681;PMS5003;34101;53.430;-2.224;2023-10-19T04:25:04;10;9;
46681;PMS5003;34101;53.430;-2.224;2023-10-19T04:27:32;8;8;
46681;PMS5003;34101;53.430;-2.224;2023-10-19T04:29:59;7;7;
46681;PMS5003;34101;53.430;-2.224;2023-10-19T04:32:27;9;9;
46681;PMS5003;34101;53.430;-2.224;2023-10-19T04:34:55;9;8;
46681;PMS5003;34101;53.430;-2.224;2023-10-19T04:37:22;9;9;
46681;PMS5003;34101;53.430;-2.224;2023-10-19T04:39:51;10;10;
46681;PMS5003;34101;53.430;-2.224;2023-10-19T04:42:18;7;7;
46681;PMS5003;34101;53.430;-2.224;2023-10-19T04:44:46;9;9;
46681;PMS5003;34101;53.430;-2.224;2023-10-19T04:47:13;10;10;
46681;PMS5003;34101;53.430;-2.224;2023-10-19T04:49:40;8;8;
46681;PMS5003;34101;53.430;-2.224;2023-10-19T04:52:08;8;8;
46681;PMS5003;34101;53.430;-2.224;2023-10-19T04:54:35;9;9;
46681;PMS5003;34101;53.430;-2.224;2023-10-19T04:57:03;10;10;
46681;PMS5003;34101;53.430;-2.224;2023-10-19T04:59:31;9;9;
46681;PMS5003;34101;53.430;-2.224;2023-10-19T05:01:59;8;8;
46681;PMS5003;34101;53.430;-2.224;2023-10-19T05:04:27;9;9;
46681;PMS5003;34101;53.430;-2.224;2023-10-19T05:06:54;7;7;
46681;PMS5003;34101;53.430;-2.224;2023-10-19T05:09:21;7;7;
46681;PMS5003;34101;53.430;-2.224;2023-10-19T05:11:49;8;8;
46681;PMS5003;34101;53.430;-2.224;2023-10-19T05:14:16;9;9;
46681;PMS5003;34101;53.430;-2.224;2023-10-19T05:16:44;7;7;
46681;PMS5003;34101;53.430;-2.224;2023-10-19T05:19:11;6;6;
46681;PMS5003;34101;53.430;-2.224;2023-10-19T05:21:39;6;6;
46681;PMS5003;34101;53.430;-2.224;2023-10-19T05:24:07;7;7;
46681;PMS5003;34101;53.430;-2.224;2023-10-19T05:26:35;6;6;
46681;PMS5003;34101;53.430;-2.224;2023-10-19T05:29:03;6;6;
46681;PMS5003;34101;53.430;-2.224;2023-10-19T05:31:30;4;4;
46681;PMS5003;34101;53.430;-2.224;2023-10-19T05:33:58;6;6;
46681;PMS5003;34101;53.430;-2.224;2023-10-19T05:36:26;4;4;
46681;PMS5003;34101;53.430;-2.224;2023-10-19T05:38:53;4;4;
46681;PMS5003;34101;53.430;-2.224;2023-10-19T05:41:21;4;4;
46681;PMS5003;34101;53.430;-2.224;2023-10-19T05:43:48;4;4;
46681;PMS5003;34101;53.430;-2.224;2023-10-19T05:46:15;3;3;
46681;PMS5003;34101;53.430;-2.224;2023-10-19T05:48:43;4;4;
46681;PMS5003;34101;53.430;-2.224;2023-10-19T05:51:10;4;4;
46681;PMS5003;34101;53.430;-2.224;2023-10-19T05:53:38;4;3;
46681;PMS5003;34101;53.430;-2.224;2023-10-19T05:56:06;4;4;
46681;PMS5003;34101;53.430;-2.224;2023-10-19T05:58:33;2;2;
46681;PMS5003;34101;53.430;-2.224;2023-10-19T06:01:01;3;3;
46681;PMS5003;34101;53.430;-2.224;2023-10-19T06:03:28;3;2;
46681;PMS5003;34101;53.430;-2.224;2023-10-19T06:05:56;1;1;
46681;PMS5003;34101;53.430;-2.224;2023-10-19T06:08:24;3;2;
46681;PMS5003;34101;53.430;-2.224;2023-10-19T06:10:52;2;2;
46681;PMS5003;34101;53.430;-2.224;2023-10-19T06:13:20;2;2;
46681;PMS5003;34101;53.430;-2.224;2023-10-19T06:15:48;1;1;
46681;PMS5003;34101;53.430;-2.224;2023-10-19T06:18:16;4;4;
46681;PMS5003;34101;53.430;-2.224;2023-10-19T06:20:44;2;2;
46681;PMS5003;34101;53.430;-2.224;2023-10-19T06:23:12;4;2;
46681;PMS5003;34101;53.430;-2.224;2023-10-19T06:25:39;3;3;
46681;PMS5003;34101;53.430;-2.224;2023-10-19T06:28:07;1;1;
46681;PMS5003;34101;53.430;-2.224;2023-10-19T06:30:36;4;4;
46681;PMS5003;34101;53.430;-2.224;2023-10-19T06:33:04;2;2;
46681;PMS5003;34101;53.430;-2.224;2023-10-19T06:35:32;3;3;
46681;PMS5003;34101;53.430;-2.224;2023-10-19T06:38:01;3;3;
46681;PMS5003;34101;53.430;-2.224;2023-10-19T06:40:29;3;3;
46681;PMS5003;34101;53.430;-2.224;2023-10-19T06:43:01;3;3;
46681;PMS5003;34101;53.430;-2.224;2023-10-19T06:45:28;3;3;
46681;PMS5003;34101;53.430;-2.224;2023-10-19T06:47:57;3;3;
46681;PMS5003;34101;53.430;-2.224;2023-10-19T06:50:24;2;2;
46681;PMS5003;34101;53.430;-2.224;2023-10-19T06:52:57;3;3;
46681;PMS5003;34101;53.430;-2.224;2023-10-19T06:55:24;2;2;
46681;PMS5003;34101;53.430;-2.224;2023-10-19T06:57:53;3;3;
46681;PMS5003;34101;53.430;-2.224;2023-10-19T07:00:22;2;2;
46681;PMS5003;34101;53.430;-2.224;2023-10-19T07:02:52;4;3;
46681;PMS5003;34101;53.430;-2.224;2023-10-19T07:05:21;4;4;
46681;PMS5003;34101;53.430;-2.224;2023-10-19T07:07:50;3;3;
46681;PMS5003;34101;53.430;-2.224;2023-10-19T07:10:18;3;3;
46681;PMS5003;34101;53.430;-2.224;2023-10-19T07:12:47;3;3;
46681;PMS5003;34101;53.430;-2.224;2023-10-19T07:15:18;4;4;
46681;PMS5003;34101;53.430;-2.224;2023-10-19T07:17:46;3;3;
46681;PMS5003;34101;53.430;-2.224;2023-10-19T07:20:16;3;3;
46681;PMS5003;34101;53.430;-2.224;2023-10-19T07:22:43;2;2;
46681;PMS5003;34101;53.430;-2.224;2023-10-19T07:25:11;3;3;
46681;PMS5003;34101;53.430;-2.224;2023-10-19T07:27:38;8;8;
46681;PMS5003;34101;53.430;-2.224;2023-10-19T07:30:06;4;4;
46681;PMS5003;34101;53.430;-2.224;2023-10-19T07:32:34;4;4;
46681;PMS5003;34101;53.430;-2.224;2023-10-19T07:35:02;2;2;
46681;PMS5003;34101;53.430;-2.224;2023-10-19T07:37:30;2;2;
46681;PMS5003;34101;53.430;-2.224;2023-10-19T07:39:58;2;2;
46681;PMS5003;34101;53.430;-2.224;2023-10-19T07:42:26;4;4;
46681;PMS5003;34101;53.430;-2.224;2023-10-19T07:44:54;5;3;
46681;PMS5003;34101;53.430;-2.224;2023-10-19T07:47:21;4;4;
46681;PMS5003;34101;53.430;-2.224;2023-10-19T07:49:49;6;5;
46681;PMS5003;34101;53.430;-2.224;2023-10-19T07:52:16;4;4;
46681;PMS5003;34101;53.430;-2.224;2023-10-19T07:54:44;5;3;
46681;PMS5003;34101;53.430;-2.224;2023-10-19T07:57:11;4;4;
46681;PMS5003;34101;53.430;-2.224;2023-10-19T07:59:39;7;6;
46681;PMS5003;34101;53.430;-2.224;2023-10-19T08:02:07;8;6;
46681;PMS5003;34101;53.430;-2.224;2023-10-19T08:04:39;5;5;
46681;PMS5003;34101;53.430;-2.224;2023-10-19T08:07:07;2;2;
46681;PMS5003;34101;53.430;-2.224;2023-10-19T08:09:35;4;4;
46681;PMS5003;34101;53.430;-2.224;2023-10-19T08:12:03;4;4;
46681;PMS5003;34101;53.430;-2.224;2023-10-19T08:14:30;5;5;
46681;PMS5003;34101;53.430;-2.224;2023-10-19T08:16:58;5;4;
46681;PMS5003;34101;53.430;-2.224;2023-10-19T08:19:27;6;6;
46681;PMS5003;34101;53.430;-2.224;2023-10-19T08:21:55;5;5;
46681;PMS5003;34101;53.430;-2.224;2023-10-19T08:24:22;4;4;
46681;PMS5003;34101;53.430;-2.224;2023-10-19T08:26:50;4;3;
46681;PMS5003;34101;53.430;-2.224;2023-10-19T08:29:17;1;1;
46681;PMS5003;34101;53.430;-2.224;2023-10-19T08:31:44;2;2;
46681;PMS5003;34101;53.430;-2.224;2023-10-19T08:34:12;1;1;
46681;PMS5003;34101;53.430;-2.224;2023-10-19T08:36:40;1;1;
46681;PMS5003;34101;53.430;-2.224;2023-10-19T08:39:08;2;2;
46681;PMS5003;34101;53.430;-2.224;2023-10-19T08:41:37;0;0;
46681;PMS5003;34101;53.430;-2.224;2023-10-19T08:44:06;0;0;
46681;PMS5003;34101;53.430;-2.224;2023-10-19T08:46:33;0;0;
46681;PMS5003;34101;53.430;-2.224;2023-10-19T08:49:02;1;1;
46681;PMS5003;34101;53.430;-2.224;2023-10-19T08:51:29;0;0;
46681;PMS5003;34101;53.430;-2.224;2023-10-19T08:53:57;0;0;
46681;PMS5003;34101;53.430;-2.224;2023-10-19T08:56:31;1;1;
46681;PMS5003;34101;53.430;-2.224;2023-10-19T08:58:59;0;0;
46681;PMS5003;34101;53.430;-2.224;2023-10-19T09:01:28;0;0;
46681;PMS5003;34101;53.430;-2.224;2023-10-19T09:03:56;1;0;
46681;PMS5003;34101;53.430;-2.224;2023-10-19T09:06:24;1;0;
46681;PMS5003;34101;53.430;-2.224;2023-10-19T09:08:52;1;1;
46681;PMS5003;34101;53.430;-2.224;2023-10-19T09:11:20;0;0;
46681;PMS5003;34101;53.430;-2.224;2023-10-19T09:13:48;1;1;
46681;PMS5003;34101;53.430;-2.224;2023-10-19T09:16:21;1;1;
46681;PMS5003;34101;53.430;-2.224;2023-10-19T09:18:50;1;1;
46681;PMS5003;34101;53.430;-2.224;2023-10-19T09:21:18;1;1;
46681;PMS5003;34101;53.430;-2.224;2023-10-19T09:23:47;1;1;
46681;PMS5003;34101;53.430;-2.224;2023-10-19T09:26:16;2;2;
46681;PMS5003;34101;53.430;-2.224;2023-10-19T09:28:46;2;2;
46681;PMS5003;34101;53.430;-2.224;2023-10-19T09:31:14;3;1;
46681;PMS5003;34101;53.430;-2.224;2023-10-19T09:33:43;4;2;
46681;PMS5003;34101;53.430;-2.224;2023-10-19T09:36:12;2;2;
46681;PMS5003;34101;53.430;-2.224;2023-10-19T09:38:43;2;2;
46681;PMS5003;34101;53.430;-2.224;2023-10-19T09:41:12;5;2;
46681;PMS5003;34101;53.430;-2.224;2023-10-19T09:43:41;2;2;
46681;PMS5003;34101;53.430;-2.224;2023-10-19T09:46:11;3;2;
46681;PMS5003;34101;53.430;-2.224;2023-10-19T09:48:47;2;1;
46681;PMS5003;34101;53.430;-2.224;2023-10-19T09:51:15;3;3;
46681;PMS5003;34101;53.430;-2.224;2023-10-19T09:53:50;1;0;
46681;PMS5003;34101;53.430;-2.224;2023-10-19T09:56:26;1;1;
46681;PMS5003;34101;53.430;-2.224;2023-10-19T09:58:59;2;2;
46681;PMS5003;34101;53.430;-2.224;2023-10-19T10:02:01;1;1;
46681;PMS5003;34101;53.430;-2.224;2023-10-19T10:04:32;2;2;
46681;PMS5003;34101;53.430;-2.224;2023-10-19T10:07:00;2;0;
46681;PMS5003;34101;53.430;-2.224;2023-10-19T10:09:31;1;1;
46681;PMS5003;34101;53.430;-2.224;2023-10-19T10:12:15;2;2;
46681;PMS5003;34101;53.430;-2.224;2023-10-19T10:14:53;2;2;
46681;PMS5003;34101;53.430;-2.224;2023-10-19T10:17:23;2;2;
46681;PMS5003;34101;53.430;-2.224;2023-10-19T10:19:53;2;1;
46681;PMS5003;34101;53.430;-2.224;2023-10-19T10:22:21;3;1;
46681;PMS5003;34101;53.430;-2.224;2023-10-19T10:24:53;4;2;
46681;PMS5003;34101;53.430;-2.224;2023-10-19T10:27:21;2;2;
46681;PMS5003;34101;53.430;-2.224;2023-10-19T10:29:57;1;1;
46681;PMS5003;34101;53.430;-2.224;2023-10-19T10:32:57;2;1;
46681;PMS5003;34101;53.430;-2.224;2023-10-19T10:35:57;2;2;
46681;PMS5003;34101;53.430;-2.224;2023-10-19T10:38:24;1;1;
46681;PMS5003;34101;53.430;-2.224;2023-10-19T10:40:59;2;2;
46681;PMS5003;34101;53.430;-2.224;2023-10-19T10:43:27;3;1;
46681;PMS5003;34101;53.430;-2.224;2023-10-19T10:46:02;2;2;
46681;PMS5003;34101;53.430;-2.224;2023-10-19T10:48:32;2;1;
46681;PMS5003;34101;53.430;-2.224;2023-10-19T10:50:59;2;2;
46681;PMS5003;34101;53.430;-2.224;2023-10-19T10:53:27;3;3;
46681;PMS5003;34101;53.430;-2.224;2023-10-19T10:55:57;1;1;
46681;PMS5003;34101;53.430;-2.224;2023-10-19T10:58:27;2;1;
46681;PMS5003;34101;53.430;-2.224;2023-10-19T11:00:55;2;1;
46681;PMS5003;34101;53.430;-2.224;2023-10-19T11:03:23;1;1;
46681;PMS5003;34101;53.430;-2.224;2023-10-19T11:05:51;2;1;
46681;PMS5003;34101;53.430;-2.224;2023-10-19T11:08:18;1;1;
46681;PMS5003;34101;53.430;-2.224;2023-10-19T11:10:50;1;1;
46681;PMS5003;34101;53.430;-2.224;2023-10-19T11:13:18;2;2;
46681;PMS5003;34101;53.430;-2.224;2023-10-19T11:15:52;4;2;
46681;PMS5003;34101;53.430;-2.224;2023-10-19T11:18:36;2;2;
46681;PMS5003;34101;53.430;-2.224;2023-10-19T11:21:06;3;3;
46681;PMS5003;34101;53.430;-2.224;2023-10-19T11:23:35;2;1;
46681;PMS5003;34101;53.430;-2.224;2023-10-19T11:26:03;3;3;
46681;PMS5003;34101;53.430;-2.224;2023-10-19T11:28:31;1;1;
46681;PMS5003;34101;53.430;-2.224;2023-10-19T11:31:16;1;1;
46681;PMS5003;34101;53.430;-2.224;2023-10-19T11:33:45;4;2;
46681;PMS5003;34101;53.430;-2.224;2023-10-19T11:36:13;4;3;
46681;PMS5003;34101;53.430;-2.224;2023-10-19T11:38:41;1;1;
46681;PMS5003;34101;53.430;-2.224;2023-10-19T11:41:11;4;2;
46681;PMS5003;34101;53.430;-2.224;2023-10-19T11:43:39;3;3;
46681;PMS5003;34101;53.430;-2.224;2023-10-19T11:46:07;4;4;
46681;PMS5003;34101;53.430;-2.224;2023-10-19T11:48:35;1;1;
46681;PMS5003;34101;53.430;-2.224;2023-10-19T11:51:04;2;2;
46681;PMS5003;34101;53.430;-2.224;2023-10-19T11:53:31;3;2;
46681;PMS5003;34101;53.430;-2.224;2023-10-19T11:56:00;2;2;
46681;PMS5003;34101;53.430;-2.224;2023-10-19T11:58:30;4;2;
46681;PMS5003;34101;53.430;-2.224;2023-10-19T12:00:58;1;1;
46681;PMS5003;34101;53.430;-2.224;2023-10-19T12:03:26;2;2;
46681;PMS5003;34101;53.430;-2.224;2023-10-19T12:05:54;4;2;
46681;PMS5003;34101;53.430;-2.224;2023-10-19T12:08:22;2;2;
46681;PMS5003;34101;53.430;-2.224;2023-10-19T12:10:50;3;2;
46681;PMS5003;34101;53.430;-2.224;2023-10-19T12:13:19;2;2;
46681;PMS5003;34101;53.430;-2.224;2023-10-19T12:15:47;3;3;
46681;PMS5003;34101;53.430;-2.224;2023-10-19T12:18:14;6;5;
46681;PMS5003;34101;53.430;-2.224;2023-10-19T12:20:41;3;3;
46681;PMS5003;34101;53.430;-2.224;2023-10-19T12:23:09;3;3;
46681;PMS5003;34101;53.430;-2.224;2023-10-19T12:25:37;6;6;
46681;PMS5003;34101;53.430;-2.224;2023-10-19T12:28:05;1;1;
46681;PMS5003;34101;53.430;-2.224;2023-10-19T12:30:32;4;3;
46681;PMS5003;34101;53.430;-2.224;2023-10-19T12:33:01;6;5;
46681;PMS5003;34101;53.430;-2.224;2023-10-19T12:35:29;5;4;
46681;PMS5003;34101;53.430;-2.224;2023-10-19T12:37:57;4;3;
46681;PMS5003;34101;53.430;-2.224;2023-10-19T12:40:24;7;4;
46681;PMS5003;34101;53.430;-2.224;2023-10-19T12:42:52;1;1;
46681;PMS5003;34101;53.430;-2.224;2023-10-19T12:45:19;7;5;
46681;PMS5003;34101;53.430;-2.224;2023-10-19T12:47:47;5;3;
46681;PMS5003;34101;53.430;-2.224;2023-10-19T12:50:15;6;4;
46681;PMS5003;34101;53.430;-2.224;2023-10-19T12:52:48;2;2;
46681;PMS5003;34101;53.430;-2.224;2023-10-19T12:55:15;4;3;
46681;PMS5003;34101;53.430;-2.224;2023-10-19T12:57:43;4;3;
46681;PMS5003;34101;53.430;-2.224;2023-10-19T13:00:11;5;5;
46681;PMS5003;34101;53.430;-2.224;2023-10-19T13:02:39;2;2;
46681;PMS5003;34101;53.430;-2.224;2023-10-19T13:05:06;3;1;
46681;PMS5003;34101;53.430;-2.224;2023-10-19T13:07:34;3;2;
46681;PMS5003;34101;53.430;-2.224;2023-10-19T13:10:01;2;2;
46681;PMS5003;34101;53.430;-2.224;2023-10-19T13:12:29;2;2;
46681;PMS5003;34101;53.430;-2.224;2023-10-19T13:14:57;1;1;
46681;PMS5003;34101;53.430;-2.224;2023-10-19T13:17:24;3;3;
46681;PMS5003;34101;53.430;-2.224;2023-10-19T13:19:51;3;3;
46681;PMS5003;34101;53.430;-2.224;2023-10-19T13:22:19;4;3;
46681;PMS5003;34101;53.430;-2.224;2023-10-19T13:24:46;5;4;
46681;PMS5003;34101;53.430;-2.224;2023-10-19T13:27:14;6;4;
46681;PMS5003;34101;53.430;-2.224;2023-10-19T13:29:41;5;2;
46681;PMS5003;34101;53.430;-2.224;2023-10-19T13:32:09;2;2;
46681;PMS5003;34101;53.430;-2.224;2023-10-19T13:34:37;1;1;
46681;PMS5003;34101;53.430;-2.224;2023-10-19T13:37:04;5;4;
46681;PMS5003;34101;53.430;-2.224;2023-10-19T13:39:31;3;3;
46681;PMS5003;34101;53.430;-2.224;2023-10-19T13:41:59;1;0;
46681;PMS5003;34101;53.430;-2.224;2023-10-19T13:44:26;2;2;
46681;PMS5003;34101;53.430;-2.224;2023-10-19T13:46:54;2;2;
46681;PMS5003;34101;53.430;-2.224;2023-10-19T13:49:22;1;1;
46681;PMS5003;34101;53.430;-2.224;2023-10-19T13:51:49;2;2;
46681;PMS5003;34101;53.430;-2.224;2023-10-19T13:54:16;1;1;
46681;PMS5003;34101;53.430;-2.224;2023-10-19T13:56:44;2;2;
46681;PMS5003;34101;53.430;-2.224;2023-10-19T13:59:11;3;3;
46681;PMS5003;34101;53.430;-2.224;2023-10-19T14:01:39;3;3;
46681;PMS5003;34101;53.430;-2.224;2023-10-19T14:04:06;3;2;
46681;PMS5003;34101;53.430;-2.224;2023-10-19T14:06:34;3;2;
46681;PMS5003;34101;53.430;-2.224;2023-10-19T14:09:02;1;1;
46681;PMS5003;34101;53.430;-2.224;2023-10-19T14:11:29;1;1;
46681;PMS5003;34101;53.430;-2.224;2023-10-19T14:13:57;1;1;
46681;PMS5003;34101;53.430;-2.224;2023-10-19T14:16:25;2;2;
46681;PMS5003;34101;53.430;-2.224;2023-10-19T14:18:52;1;1;
46681;PMS5003;34101;53.430;-2.224;2023-10-19T14:21:20;4;1;
46681;PMS5003;34101;53.430;-2.224;2023-10-19T14:23:47;4;2;
46681;PMS5003;34101;53.430;-2.224;2023-10-19T14:26:14;3;2;
46681;PMS5003;34101;53.430;-2.224;2023-10-19T14:28:42;6;3;
46681;PMS5003;34101;53.430;-2.224;2023-10-19T14:31:10;2;2;
46681;PMS5003;34101;53.430;-2.224;2023-10-19T14:33:43;3;2;
46681;PMS5003;34101;53.430;-2.224;2023-10-19T14:36:10;2;1;
46681;PMS5003;34101;53.430;-2.224;2023-10-19T14:38:38;3;3;
46681;PMS5003;34101;53.430;-2.224;2023-10-19T14:41:05;2;2;
46681;PMS5003;34101;53.430;-2.224;2023-10-19T14:43:32;2;2;
46681;PMS5003;34101;53.430;-2.224;2023-10-19T14:46:00;2;2;
46681;PMS5003;34101;53.430;-2.224;2023-10-19T14:48:28;3;2;
46681;PMS5003;34101;53.430;-2.224;2023-10-19T14:50:56;1;1;
46681;PMS5003;34101;53.430;-2.224;2023-10-19T14:53:24;2;2;
46681;PMS5003;34101;53.430;-2.224;2023-10-19T14:55:51;4;2;
46681;PMS5003;34101;53.430;-2.224;2023-10-19T14:58:21;4;2;
46681;PMS5003;34101;53.430;-2.224;2023-10-19T15:00:49;2;2;
46681;PMS5003;34101;53.430;-2.224;2023-10-19T15:03:16;4;2;
46681;PMS5003;34101;53.430;-2.224;2023-10-19T15:05:44;3;3;
46681;PMS5003;34101;53.430;-2.224;2023-10-19T15:08:11;2;2;
46681;PMS5003;34101;53.430;-2.224;2023-10-19T15:10:40;1;1;
46681;PMS5003;34101;53.430;-2.224;2023-10-19T15:13:08;0;0;
46681;PMS5003;34101;53.430;-2.224;2023-10-19T15:15:36;3;1;
46681;PMS5003;34101;53.430;-2.224;2023-10-19T15:18:04;4;2;
46681;PMS5003;34101;53.430;-2.224;2023-10-19T15:20:32;3;1;
46681;PMS5003;34101;53.430;-2.224;2023-10-19T15:23:00;3;1;
46681;PMS5003;34101;53.430;-2.224;2023-10-19T15:25:28;0;0;
46681;PMS5003;34101;53.430;-2.224;2023-10-19T15:27:56;2;1;
46681;PMS5003;34101;53.430;-2.224;2023-10-19T15:30:23;4;3;
46681;PMS5003;34101;53.430;-2.224;2023-10-19T15:32:52;2;2;
46681;PMS5003;34101;53.430;-2.224;2023-10-19T15:35:19;5;2;
46681;PMS5003;34101;53.430;-2.224;2023-10-19T15:37:47;3;3;
46681;PMS5003;34101;53.430;-2.224;2023-10-19T15:40:15;3;3;
46681;PMS5003;34101;53.430;-2.224;2023-10-19T15:42:43;2;2;
46681;PMS5003;34101;53.430;-2.224;2023-10-19T15:45:11;2;2;
46681;PMS5003;34101;53.430;-2.224;2023-10-19T15:47:39;4;1;
46681;PMS5003;34101;53.430;-2.224;2023-10-19T15:50:08;4;2;
46681;PMS5003;34101;53.430;-2.224;2023-10-19T15:52:35;1;1;
46681;PMS5003;34101;53.430;-2.224;2023-10-19T15:55:03;2;2;
46681;PMS5003;34101;53.430;-2.224;2023-10-19T15:57:31;3;3;
46681;PMS5003;34101;53.430;-2.224;2023-10-19T15:59:59;2;2;
46681;PMS5003;34101;53.430;-2.224;2023-10-19T16:02:27;4;2;
46681;PMS5003;34101;53.430;-2.224;2023-10-19T16:04:55;3;3;
46681;PMS5003;34101;53.430;-2.224;2023-10-19T16:07:22;5;4;
46681;PMS5003;34101;53.430;-2.224;2023-10-19T16:09:50;2;2;
46681;PMS5003;34101;53.430;-2.224;2023-10-19T16:12:17;3;3;
46681;PMS5003;34101;53.430;-2.224;2023-10-19T16:14:44;3;3;
46681;PMS5003;34101;53.430;-2.224;2023-10-19T16:17:12;2;1;
46681;PMS5003;34101;53.430;-2.224;2023-10-19T16:19:40;4;3;
46681;PMS5003;34101;53.430;-2.224;2023-10-19T16:22:08;4;3;
46681;PMS5003;34101;53.430;-2.224;2023-10-19T16:24:35;6;5;
46681;PMS5003;34101;53.430;-2.224;2023-10-19T16:27:03;4;4;
46681;PMS5003;34101;53.430;-2.224;2023-10-19T16:29:30;7;4;
46681;PMS5003;34101;53.430;-2.224;2023-10-19T16:31:58;5;5;
46681;PMS5003;34101;53.430;-2.224;2023-10-19T16:34:26;4;4;
46681;PMS5003;34101;53.430;-2.224;2023-10-19T16:36:54;7;4;
46681;PMS5003;34101;53.430;-2.224;2023-10-19T16:39:22;6;6;
46681;PMS5003;34101;53.430;-2.224;2023-10-19T16:41:50;4;4;